Ukiah, CA

4:18 AM PDT on September 02, 2014 (GMT -0700)
Ukiah Municipal | Change Station
CLOSE
Current Station
Airport
Location: Ukiah,
Elevation: 614 ft
Nearby Weather Stations

Elev 614 ft 39.13 °N, 123.20 °W | Updated 22 minutes ago

Clear
Clear
61 °F
Feels Like 61 °F
N
0
Wind Variable Wind from North

Today
High -- | Low -- °F
--% Chance of Precip.
Yesterday
High -- | Low -- °F
Precip. -- in
6:42 AM 7:41 PM
Waxing Crescent, 50% visible
Pressure 29.76 in
Visibility 10.0 miles
Clouds Clear
Dew Point 49 °F
Humidity 64%
Rainfall 0.00 in
Snow Depth Not available.
UV 0 out of 12
Pollen 9.00 out of 12
Air Quality Not available.
Flu Activity Not available.
METAR KUKI 021056Z AUTO 00000KT 10SM CLR 16/09 A2978 RMK AO2 SLP076 T01610094

More Conditions Fewer Conditions

Pressure 29.76 in
Visibility 10.0 miles
Clouds Clear
Dew Point 49 °F
Humidity 64%
Rainfall 0.00 in
Snow Depth Not available.
UV 0 out of 12
Pollen 9.00 out of 12
Air Quality Not available.
Flu Activity Not available.
METAR KUKI 021056Z AUTO 00000KT 10SM CLR 16/09 A2978 RMK AO2 SLP076 T01610094

More Conditions Fewer Conditions

10-Day Weather Forecast

Almanac

Astronomy

Sep. 02, 2014 Rise Set
Actual Time 6:42 AM PDT 7:41 PM PDT
Civil Twilight 6:15 AM PDT 8:09 PM PDT
Nautical Twilight 5:42 AM PDT 8:41 PM PDT
Astronomical Twilight 5:08 AM PDT 9:15 PM PDT
Moon 2:29 PM PDT No Moon Set
Length of Visible Light 13h 53m
Length of Day
12h 59m
Tomorrow will be 2m 27s shorter.
Waxing Crescent, 50% of the Moon is Illuminated
Today
Waxing Crescent
Sep 8
Full
Sep 15
Last Quarter
Sep 24
New
Oct 1
First Quarter

Today's Extremes

State Highs State Lows

Community

WunderPhotos

Upload Photos

1,749,621 photos uploaded!

WunderBlogs® & News

By Dr. Jeff Masters
Director of Meteorology, Weather Underground
By Kari Strenfel
Meteorologist, Weather Underground
By Christopher C. Burt
Weather Historian, Weather Underground
September 2, 2014
September 2, 2014
September 2, 2014

Nearby

Snow Depth

Station Depth Elevation
CSS Lab 2 in 6900 ft
Independence Camp 0 in 7000 ft
Rubicon #2 0 in 7500 ft
Echo Peak 0 in 7800 ft
Fallen Leaf 0 in 6300 ft

Earthquake Activity

City Distance Mag. Time & Date
Yountville, California 70 miles 2.6 1:15 PM PDT
2014-09-01
Green Valley, California 84 miles 2.5 6:37 AM PDT
2014-08-31
Napa, California 79 miles 3.2 1:56 AM PDT
2014-08-31
Minimum magnitude displayed is 2.5.

Coastal Water Temperatures

Place Temperature
Arena Cove, CA 54.0 °F
North Spit, CA 64.0 °F
Point Reyes, CA 57.9 °F
San Francisco, CA 66.0 °F
Richmond, CA 68.0 °F

Nearby Weather Stations